TimePDT,TemperatureF,Dew PointF,Humidity,Sea Level PressureIn,VisibilityMPH,Wind Direction,Wind SpeedMPH,Gust SpeedMPH,PrecipitationIn,Events,Conditions,WindDirDegrees,DateUTC
12:53 AM,57.9,50.0,75,29.96,10.0,East,6.9,-,N/A,,Clear,100,2011-10-07 07:53:00
1:53 AM,57.9,48.9,72,29.97,10.0,ESE,5.8,-,N/A,,Clear,110,2011-10-07 08:53:00
2:53 AM,57.0,50.0,77,29.98,10.0,Calm,Calm,-,N/A,,Clear,0,2011-10-07 09:53:00
3:53 AM,57.0,48.9,74,30.00,10.0,Calm,Calm,-,N/A,,Clear,0,2011-10-07 10:53:00
4:31 AM,55.4,48.2,77,30.00,10.0,NE,3.5,-,N/A,,Mostly Cloudy,40,2011-10-07 11:31:00
4:53 AM,55.9,48.9,77,30.01,10.0,East,3.5,-,N/A,,Overcast,100,2011-10-07 11:53:00
5:14 AM,55.4,48.2,77,30.00,10.0,Calm,Calm,-,N/A,,Scattered Clouds,0,2011-10-07 12:14:00
5:53 AM,55.9,48.9,77,30.01,10.0,Calm,Calm,-,N/A,,Partly Cloudy,0,2011-10-07 12:53:00
6:53 AM,55.9,48.9,77,30.04,10.0,Calm,Calm,-,N/A,,Partly Cloudy,0,2011-10-07 13:53:00
7:53 AM,59.0,48.9,69,30.06,10.0,Variable,3.5,-,N/A,,Scattered Clouds,0,2011-10-07 14:53:00
8:53 AM,63.0,50.0,63,30.08,10.0,Variable,3.5,-,N/A,,Scattered Clouds,0,2011-10-07 15:53:00
9:53 AM,64.0,51.1,63,30.09,10.0,Calm,Calm,-,N/A,,Scattered Clouds,0,2011-10-07 16:53:00
10:53 AM,66.9,51.1,57,30.09,10.0,NNE,3.5,-,N/A,,Partly Cloudy,20,2011-10-07 17:53:00
11:53 AM,69.1,52.0,54,30.08,10.0,SSW,6.9,-,N/A,,Partly Cloudy,200,2011-10-07 18:53:00
12:53 PM,69.1,51.1,53,30.06,10.0,SSW,9.2,-,N/A,,Partly Cloudy,210,2011-10-07 19:53:00
1:53 PM,69.8,51.8,53,30.04,10.0,SSW,5.8,-,N/A,,Partly Cloudy,200,2011-10-07 20:53:00
2:53 PM,70.0,50.0,49,30.03,10.0,West,6.9,-,N/A,,Scattered Clouds,270,2011-10-07 21:53:00
3:53 PM,69.1,45.0,42,30.02,10.0,West,9.2,-,N/A,,Scattered Clouds,270,2011-10-07 22:53:00
4:53 PM,69.1,45.0,42,30.01,10.0,Variable,6.9,-,N/A,,Partly Cloudy,0,2011-10-07 23:53:00
5:53 PM,66.9,48.0,51,30.02,10.0,Variable,4.6,-,N/A,,Clear,0,2011-10-08 00:53:00
6:53 PM,64.9,48.0,54,30.04,10.0,West,5.8,-,N/A,,Clear,270,2011-10-08 01:53:00
7:53 PM,64.0,50.0,60,30.06,10.0,West,3.5,-,N/A,,Clear,260,2011-10-08 02:53:00
8:53 PM,62.1,52.0,70,30.06,10.0,SSE,3.5,-,N/A,,Clear,160,2011-10-08 03:53:00
9:53 PM,62.1,53.1,72,30.06,10.0,South,3.5,-,N/A,,Clear,180,2011-10-08 04:53:00
10:53 PM,61.0,52.0,72,30.05,10.0,Calm,Calm,-,N/A,,Clear,0,2011-10-08 05:53:00
11:53 PM,59.0,50.0,72,30.04,10.0,Calm,Calm,-,N/A,,Clear,0,2011-10-08 06:53:00